createdAt,value
2024-03-06T00:00:55.007Z,101840.25
2024-03-06T00:03:21.608Z,101838.50
2024-03-06T00:05:48.855Z,101833.31
2024-03-06T00:08:15.873Z,101841.94
2024-03-06T00:10:42.869Z,101844.53
2024-03-06T00:13:09.568Z,101844.50
2024-03-06T00:15:36.224Z,101853.09
2024-03-06T00:18:04.549Z,101853.97
2024-03-06T00:20:31.131Z,101857.41
2024-03-06T00:22:57.918Z,101854.84
2024-03-06T00:25:24.506Z,101862.59
2024-03-06T00:27:51.126Z,101859.13
2024-03-06T00:30:17.883Z,101847.75
2024-03-06T00:32:44.654Z,101863.44
2024-03-06T00:35:13.354Z,101866.88
2024-03-06T00:37:40.266Z,101870.38
2024-03-06T00:40:07.768Z,101873.84
2024-03-06T00:42:34.541Z,101872.19
2024-03-06T00:45:01.237Z,101874.78
2024-03-06T00:47:28.457Z,101873.91
2024-03-06T00:49:55.135Z,101873.13
2024-03-06T00:52:21.845Z,101875.75
2024-03-06T00:54:48.496Z,101880.94
2024-03-06T00:57:15.100Z,101870.56
2024-03-06T00:59:41.678Z,101878.44
2024-03-06T01:02:08.360Z,101881.06
2024-03-06T01:04:35.093Z,101873.19
2024-03-06T01:07:01.750Z,101872.47
2024-03-06T01:09:28.409Z,101880.25
2024-03-06T01:11:55.025Z,101878.59
2024-03-06T01:14:23.554Z,101876.78
2024-03-06T01:16:50.172Z,101888.94
2024-03-06T01:19:16.753Z,101889.75
2024-03-06T01:21:43.432Z,101892.44
2024-03-06T01:24:10.026Z,101892.44
2024-03-06T01:26:36.711Z,101891.63
2024-03-06T01:29:03.635Z,101888.09
2024-03-06T01:31:30.396Z,101885.53
2024-03-06T01:33:57.001Z,101900.31
2024-03-06T01:36:23.654Z,101902.06
2024-03-06T01:38:50.228Z,101899.47
2024-03-06T01:41:17.033Z,101895.16
2024-03-06T01:43:43.975Z,101907.28
2024-03-06T01:46:10.616Z,101901.22
2024-03-06T01:48:37.286Z,101903.00
2024-03-06T01:51:06.036Z,101900.34
2024-03-06T01:53:34.728Z,101909.91
2024-03-06T01:56:02.586Z,101908.16
2024-03-06T01:58:29.492Z,101900.47
2024-03-06T02:00:56.479Z,101904.81
2024-03-06T02:03:23.765Z,101900.50
2024-03-06T02:05:51.770Z,101907.44
2024-03-06T02:08:18.866Z,101900.47
2024-03-06T02:10:46.487Z,101909.19
2024-03-06T02:13:14.859Z,101900.47
2024-03-06T02:15:42.048Z,101908.31
2024-03-06T02:18:10.198Z,101912.66
2024-03-06T02:20:41.075Z,101911.81
2024-03-06T02:23:08.867Z,101916.13
2024-03-06T02:25:35.763Z,101915.28
2024-03-06T02:28:02.461Z,101916.16
2024-03-06T02:30:31.553Z,101910.13
2024-03-06T02:32:58.388Z,101911.81
2024-03-06T02:35:25.108Z,101911.03
2024-03-06T02:37:51.728Z,101910.16
2024-03-06T02:40:18.433Z,101911.88
2024-03-06T02:42:45.065Z,101888.31
2024-03-06T02:45:11.656Z,101906.72
2024-03-06T02:47:38.447Z,101905.84
2024-03-06T02:50:06.324Z,101901.53
2024-03-06T02:52:33.161Z,101898.97
2024-03-06T02:55:01.142Z,101899.78
2024-03-06T02:57:29.493Z,101893.72
2024-03-06T02:59:59.843Z,101888.44
2024-03-06T03:02:27.149Z,101891.94
2024-03-06T03:04:54.066Z,101893.69
2024-03-06T03:07:20.812Z,101898.84
2024-03-06T03:09:48.228Z,101896.28
2024-03-06T03:12:15.004Z,101891.09
2024-03-06T03:14:42.380Z,101893.72
2024-03-06T03:17:09.154Z,101905.78
2024-03-06T03:19:36.222Z,101896.31
2024-03-06T03:22:05.405Z,101894.63
2024-03-06T03:24:32.231Z,101892.09
2024-03-06T03:26:58.845Z,101892.97
2024-03-06T03:29:25.396Z,101892.97
2024-03-06T03:31:52.106Z,101887.78
2024-03-06T03:34:18.750Z,101885.09
2024-03-06T03:36:45.404Z,101885.97
2024-03-06T03:39:18.387Z,101891.25
2024-03-06T03:41:49.462Z,101889.50
2024-03-06T03:44:17.890Z,101896.41
2024-03-06T03:46:44.805Z,101892.16
2024-03-06T03:49:11.820Z,101892.16
2024-03-06T03:51:39.760Z,101885.22
2024-03-06T03:54:07.346Z,101889.59
2024-03-06T03:56:34.582Z,101889.59
2024-03-06T03:59:01.282Z,101891.31
2024-03-06T04:01:28.074Z,101890.47
2024-03-06T04:03:54.695Z,101893.91
2024-03-06T04:06:21.361Z,101897.41
2024-03-06T04:08:48.048Z,101901.69
2024-03-06T04:11:14.735Z,101900.88
2024-03-06T04:13:41.439Z,101900.91
2024-03-06T04:16:08.158Z,101905.19
2024-03-06T04:18:35.325Z,101904.31
2024-03-06T04:21:08.436Z,101906.03
2024-03-06T04:23:35.262Z,101910.38
2024-03-06T04:26:02.337Z,101907.78
2024-03-06T04:28:29.308Z,101903.34
2024-03-06T04:30:56.531Z,101906.06
2024-03-06T04:33:23.246Z,101907.72
2024-03-06T04:35:49.897Z,101906.06
2024-03-06T04:38:16.769Z,101914.66
2024-03-06T04:40:43.627Z,101918.13
2024-03-06T04:43:10.545Z,101916.44
2024-03-06T04:45:37.194Z,101926.75
2024-03-06T04:48:04.271Z,101912.03
2024-03-06T04:50:30.882Z,101921.53
2024-03-06T04:52:57.701Z,101928.50
2024-03-06T04:55:26.157Z,101940.59
2024-03-06T04:57:56.878Z,101933.69
2024-03-06T05:00:24.365Z,101934.50
2024-03-06T06:00:30.651Z,101975.72
2024-03-06T06:02:57.427Z,101974.03
2024-03-06T06:05:25.313Z,101974.84
2024-03-06T06:07:52.384Z,101979.19
2024-03-06T06:10:21.708Z,101981.78
2024-03-06T06:12:49.944Z,101978.31
2024-03-06T06:15:16.870Z,101983.47
2024-03-06T06:17:47.305Z,101983.53
2024-03-06T06:20:18.146Z,101973.00
2024-03-06T06:22:45.518Z,101986.16
2024-03-06T06:25:12.500Z,101984.41
2024-03-06T06:27:40.075Z,101978.25
2024-03-06T06:30:10.100Z,101999.03
2024-03-06T06:32:37.769Z,101998.19
2024-03-06T06:35:06.108Z,101993.81
2024-03-06T06:37:33.024Z,101994.69
2024-03-06T06:40:00.625Z,102003.38
2024-03-06T06:42:27.266Z,102009.41
2024-03-06T06:44:54.190Z,101999.84
2024-03-06T06:47:20.852Z,102002.50
2024-03-06T06:49:47.456Z,101998.19
2024-03-06T06:52:15.880Z,102001.63
2024-03-06T06:54:42.467Z,101996.34
2024-03-06T06:57:09.968Z,102008.59
2024-03-06T06:59:36.568Z,102010.34
2024-03-06T07:02:03.952Z,102018.16
2024-03-06T07:04:30.552Z,102012.16
2024-03-06T07:06:57.152Z,102015.59
2024-03-06T07:09:23.764Z,102014.75
2024-03-06T07:11:50.711Z,102025.09
2024-03-06T07:14:17.379Z,102020.75
2024-03-06T07:16:45.189Z,102023.38
2024-03-06T07:19:12.774Z,102030.31
2024-03-06T07:21:39.634Z,102032.94
2024-03-06T07:24:06.525Z,102032.94
2024-03-06T07:26:34.538Z,102031.25
2024-03-06T07:29:01.797Z,102038.31
2024-03-06T07:31:28.542Z,102045.22
2024-03-06T07:33:55.098Z,102043.53
2024-03-06T07:36:22.044Z,102047.03
2024-03-06T07:38:48.728Z,102049.69
2024-03-06T07:41:15.384Z,102052.28
2024-03-06T07:43:42.498Z,102051.34
2024-03-06T07:46:11.701Z,102051.38
2024-03-06T07:48:39.460Z,102046.16
2024-03-06T07:51:06.460Z,102057.38
2024-03-06T07:53:33.150Z,102063.50
2024-03-06T07:55:59.936Z,102063.50
2024-03-06T07:58:26.689Z,102062.72
2024-03-06T08:00:57.548Z,102063.59
2024-03-06T08:03:25.435Z,102071.34
2024-03-06T08:05:56.299Z,102074.88
2024-03-06T08:08:23.464Z,102075.78
2024-03-06T08:10:50.402Z,102078.38
2024-03-06T08:13:18.884Z,102083.59
2024-03-06T08:15:46.267Z,102083.66
2024-03-06T08:18:14.582Z,102081.13
2024-03-06T08:20:42.743Z,102086.28
2024-03-06T08:23:11.369Z,102088.06
2024-03-06T08:25:38.918Z,102089.81
2024-03-06T08:28:06.619Z,102093.38
2024-03-06T08:30:33.899Z,102095.19
2024-03-06T08:33:00.914Z,102090.91
2024-03-06T08:35:27.964Z,102094.41
2024-03-06T08:37:54.700Z,102100.47
2024-03-06T08:40:21.842Z,102103.09
2024-03-06T08:42:49.810Z,102104.91
2024-03-06T08:45:17.848Z,102113.59
2024-03-06T08:47:45.660Z,102116.25
2024-03-06T08:50:13.633Z,102117.16
2024-03-06T08:52:40.570Z,102112.06
2024-03-06T08:55:08.081Z,102117.31
2024-03-06T08:57:35.783Z,102114.78
2024-03-06T09:00:03.428Z,102112.16
2024-03-06T09:02:31.854Z,102122.81
2024-03-06T09:04:58.462Z,102128.88
2024-03-06T09:07:25.152Z,102132.44
2024-03-06T09:09:54.879Z,102132.53
2024-03-06T09:12:21.620Z,102138.69
2024-03-06T09:14:48.313Z,102138.69
2024-03-06T09:17:15.889Z,102140.50
2024-03-06T09:19:54.983Z,102137.91
2024-03-06T09:22:29.819Z,102147.56
2024-03-06T09:24:57.596Z,102148.53
2024-03-06T09:27:24.428Z,102157.19
2024-03-06T09:29:51.080Z,102154.72
2024-03-06T09:32:20.096Z,102165.28
2024-03-06T09:34:47.031Z,102164.47
2024-03-06T09:37:13.750Z,102170.63
2024-03-06T09:39:40.390Z,102167.09
2024-03-06T09:42:07.804Z,102164.59
2024-03-06T09:44:35.425Z,102168.25
2024-03-06T09:47:07.373Z,102172.66
2024-03-06T09:49:35.999Z,102177.00
2024-03-06T09:52:05.020Z,102177.09
2024-03-06T09:54:31.830Z,102178.94
2024-03-06T09:57:00.074Z,102169.31
2024-03-06T09:59:28.314Z,102184.16
2024-03-06T10:01:59.470Z,102157.16
2024-03-06T10:04:27.745Z,102187.03
2024-03-06T10:06:56.227Z,102185.44
2024-03-06T10:09:22.989Z,102187.22
2024-03-06T10:11:50.226Z,102190.84
2024-03-06T10:14:17.135Z,102184.88
2024-03-06T10:16:53.167Z,102185.97
2024-03-06T10:19:20.486Z,102185.28
2024-03-06T10:21:52.097Z,102188.94
2024-03-06T10:24:29.168Z,102192.41
2024-03-06T10:26:59.192Z,102198.50
2024-03-06T10:29:27.628Z,102184.78
2024-03-06T10:31:57.581Z,102202.19
2024-03-06T10:34:28.798Z,102171.00
2024-03-06T10:37:14.177Z,102187.88
2024-03-06T10:39:45.302Z,102189.81
2024-03-06T10:42:14.382Z,102168.06
2024-03-06T10:44:52.985Z,102170.81
2024-03-06T10:47:20.548Z,102190.25
2024-03-06T10:49:48.528Z,102198.13
2024-03-06T10:52:17.873Z,102193.00
2024-03-06T10:54:47.300Z,102192.16
2024-03-06T10:57:15.489Z,102175.66
2024-03-06T10:59:44.198Z,102204.50
2024-03-06T11:02:13.833Z,102208.06
2024-03-06T11:04:41.794Z,102209.94
2024-03-06T11:07:11.908Z,102207.38
2024-03-06T11:09:40.915Z,102210.91
2024-03-06T11:12:08.433Z,102206.56
2024-03-06T11:14:39.715Z,102218.69
2024-03-06T11:17:09.646Z,102190.88
2024-03-06T11:20:01.843Z,102219.72
2024-03-06T11:23:00.830Z,102218.16
2024-03-06T11:25:47.165Z,102215.75
2024-03-06T11:28:31.013Z,102222.81
2024-03-06T11:31:06.570Z,102221.25
2024-03-06T11:33:44.936Z,102218.84
2024-03-06T11:36:21.762Z,102219.88
2024-03-06T11:38:49.442Z,102219.13
2024-03-06T11:41:16.191Z,102223.63
2024-03-06T11:43:44.027Z,102227.13
2024-03-06T11:46:11.566Z,102220.19
2024-03-06T11:48:39.706Z,102227.09
2024-03-06T11:51:06.698Z,102236.59
2024-03-06T11:53:38.347Z,102233.06
2024-03-06T11:56:11.117Z,102234.81
2024-03-06T11:58:39.008Z,102233.06
2024-03-06T12:01:05.913Z,102238.22
2024-03-06T12:03:32.833Z,102227.72
2024-03-06T12:06:00.068Z,102229.31
2024-03-06T12:08:28.177Z,102232.72
2024-03-06T12:10:56.730Z,102226.50
2024-03-06T12:13:23.755Z,102238.63
2024-03-06T12:15:50.486Z,102208.88
2024-03-06T12:18:20.508Z,102232.31
2024-03-06T12:20:47.399Z,102231.34
2024-03-06T12:23:30.316Z,102224.28
2024-03-06T12:26:11.298Z,102228.59
2024-03-06T12:28:39.454Z,102224.22
2024-03-06T12:31:08.851Z,102222.31
2024-03-06T12:33:35.914Z,102223.09
2024-03-06T12:36:07.875Z,102216.09
2024-03-06T12:38:34.768Z,102223.03
2024-03-06T12:41:01.545Z,102221.34
2024-03-06T12:43:29.906Z,102223.97
2024-03-06T12:45:58.701Z,102216.25
2024-03-06T12:48:26.985Z,102218.03
2024-03-06T12:50:55.361Z,102222.47
2024-03-06T12:53:23.307Z,102205.13
2024-03-06T12:55:50.079Z,102206.94
2024-03-06T12:58:16.793Z,102214.84
2024-03-06T13:00:43.489Z,102206.19
2024-03-06T13:03:13.607Z,102203.66
2024-03-06T13:05:40.310Z,102206.34
2024-03-06T13:08:07.226Z,102200.31
2024-03-06T13:10:33.901Z,102200.34
2024-03-06T13:13:00.602Z,102199.50
2024-03-06T13:15:27.193Z,102204.81
2024-03-06T13:17:53.888Z,102199.69
2024-03-06T13:20:20.805Z,102204.97
2024-03-06T13:22:47.404Z,102205.06
2024-03-06T13:25:14.180Z,102200.84
2024-03-06T13:27:40.842Z,102196.56
2024-03-06T13:30:09.288Z,102205.31
2024-03-06T13:32:36.238Z,102203.69
2024-03-06T13:35:03.492Z,102195.09
2024-03-06T13:37:30.299Z,102203.81
2024-03-06T13:40:01.577Z,102205.63
2024-03-06T13:42:28.644Z,102204.00
2024-03-06T13:44:55.268Z,102204.09
2024-03-06T13:47:22.012Z,102200.69
2024-03-06T13:49:48.685Z,102204.25
2024-03-06T13:52:16.497Z,102211.22
2024-03-06T13:54:43.772Z,102214.72
2024-03-06T13:57:10.821Z,102211.22
2024-03-06T13:59:38.970Z,102212.09
2024-03-06T14:02:07.789Z,102217.28
2024-03-06T14:04:34.902Z,102212.03
2024-03-06T14:07:01.595Z,102225.94
2024-03-06T14:09:28.312Z,102219.00
2024-03-06T14:11:55.520Z,102211.16
2024-03-06T14:14:22.316Z,102212.00
2024-03-06T14:16:49.137Z,102211.03
2024-03-06T14:19:15.919Z,102218.84
2024-03-06T14:21:43.823Z,102221.44
2024-03-06T14:24:10.484Z,102221.44
2024-03-06T14:26:38.035Z,102217.06
2024-03-06T14:29:08.436Z,102218.75
2024-03-06T14:31:35.768Z,102217.06
2024-03-06T14:34:06.172Z,102219.72
2024-03-06T14:36:35.334Z,102218.06
2024-03-06T14:39:02.101Z,102217.28
2024-03-06T14:41:28.850Z,102219.06
2024-03-06T14:43:55.640Z,102215.59
2024-03-06T14:46:22.361Z,102218.22
2024-03-06T14:48:48.981Z,102218.22
2024-03-06T14:51:16.410Z,102222.59
2024-03-06T14:53:43.155Z,102224.31
2024-03-06T14:56:12.060Z,102228.59
2024-03-06T14:58:39.128Z,102227.69
2024-03-06T15:01:06.241Z,102231.94
2024-03-06T15:03:33.075Z,102231.00
2024-03-06T15:05:59.985Z,102226.63
2024-03-06T15:08:26.701Z,102229.22
2024-03-06T15:10:55.185Z,102236.16
2024-03-06T15:13:23.909Z,102237.00
2024-03-06T15:15:51.691Z,102229.16
2024-03-06T15:18:18.848Z,102234.34
2024-03-06T15:20:45.899Z,102229.97
2024-03-06T15:23:12.716Z,102224.72
2024-03-06T15:25:39.685Z,102225.53
2024-03-06T15:28:06.453Z,102223.69
2024-03-06T15:30:35.418Z,102228.88
2024-03-06T15:33:04.204Z,102230.59
2024-03-06T15:35:31.230Z,102237.50
2024-03-06T15:37:57.999Z,102232.19
2024-03-06T15:40:26.016Z,102233.09
2024-03-06T15:42:56.338Z,102234.81
2024-03-06T15:45:24.107Z,102234.84
2024-03-06T15:47:50.918Z,102232.19
2024-03-06T15:50:17.802Z,102234.91
2024-03-06T15:52:44.472Z,102235.78
2024-03-06T15:55:11.190Z,102234.13
2024-03-06T15:57:38.307Z,102237.66
2024-03-06T16:00:14.488Z,102241.13
2024-03-06T16:02:42.452Z,102244.63
2024-03-06T16:05:09.669Z,102242.88
2024-03-06T16:07:42.086Z,102243.75
2024-03-06T16:10:11.815Z,102244.56
2024-03-06T16:12:38.448Z,102240.19
2024-03-06T16:15:05.750Z,102226.97
2024-03-06T16:17:32.617Z,102244.38
2024-03-06T16:19:59.371Z,102246.88
2024-03-06T16:22:26.295Z,102246.78
2024-03-06T16:24:53.147Z,102237.97
2024-03-06T16:27:20.132Z,102244.84
2024-03-06T16:29:49.152Z,102252.59
2024-03-06T16:32:15.906Z,102253.41
2024-03-06T16:34:42.637Z,102244.69
2024-03-06T16:37:09.518Z,102255.88
2024-03-06T16:39:36.337Z,102254.06
2024-03-06T16:42:04.015Z,102255.75
2024-03-06T16:44:31.574Z,102262.59
2024-03-06T16:46:58.203Z,102259.00
2024-03-06T16:49:25.725Z,102258.03
2024-03-06T16:51:53.202Z,102260.63
2024-03-06T16:54:19.806Z,102261.41
2024-03-06T16:56:46.515Z,102259.59
2024-03-06T16:59:14.446Z,102270.75
2024-03-06T17:01:42.422Z,102266.38
2024-03-06T17:04:09.204Z,102261.09
2024-03-06T17:06:36.251Z,102269.72
2024-03-06T17:09:02.943Z,102261.84
2024-03-06T17:11:29.871Z,102267.91
2024-03-06T17:13:56.606Z,102273.09
2024-03-06T17:16:23.239Z,102248.59
2024-03-06T17:18:49.935Z,102272.19
2024-03-06T17:21:16.665Z,102273.94
2024-03-06T17:23:45.014Z,102272.09
2024-03-06T17:26:13.277Z,102275.56
2024-03-06T17:28:41.359Z,102271.22
2024-03-06T17:31:08.664Z,102276.34
2024-03-06T17:33:35.314Z,102264.00
2024-03-06T17:36:02.010Z,102288.34
2024-03-06T17:38:30.776Z,102287.41
2024-03-06T17:40:57.452Z,102288.16
2024-03-06T17:43:24.144Z,102289.81
2024-03-06T17:45:50.826Z,102289.56
2024-03-06T17:48:18.485Z,102298.19
2024-03-06T17:50:47.564Z,102305.00
2024-03-06T17:53:14.805Z,102303.06
2024-03-06T17:55:42.078Z,102306.50
2024-03-06T17:58:09.138Z,102311.56
2024-03-06T18:00:37.796Z,102315.66
2024-03-06T18:03:04.992Z,102319.06
2024-03-06T18:05:31.820Z,102314.53
2024-03-06T18:07:58.429Z,102321.28
2024-03-06T18:10:25.129Z,102322.84
2024-03-06T18:12:51.905Z,102330.44
2024-03-06T18:15:19.239Z,102329.44
2024-03-06T18:17:45.944Z,102339.72
2024-03-06T18:20:13.025Z,102340.38
2024-03-06T18:22:39.919Z,102335.88
2024-03-06T18:25:07.667Z,102342.75
2024-03-06T18:27:35.174Z,102351.28
2024-03-06T18:30:03.914Z,102343.31
2024-03-06T18:32:30.685Z,102351.03
2024-03-06T18:34:59.022Z,102350.06
2024-03-06T18:37:26.084Z,102353.22
2024-03-06T18:39:54.321Z,102347.00
2024-03-06T18:42:22.200Z,102355.59
2024-03-06T18:44:49.807Z,102358.97
2024-03-06T18:47:16.877Z,102360.47
2024-03-06T18:49:43.628Z,102361.97
2024-03-06T18:52:10.748Z,102366.91
2024-03-06T18:54:43.051Z,102357.06
2024-03-06T18:57:10.070Z,102363.88
2024-03-06T18:59:38.784Z,102368.00
2024-03-06T19:02:07.601Z,102376.41
2024-03-06T19:04:36.809Z,102371.88
2024-03-06T19:07:04.934Z,102376.81
2024-03-06T19:09:31.539Z,102375.63
2024-03-06T19:11:58.372Z,102373.81
2024-03-06T19:14:25.079Z,102375.28
2024-03-06T19:16:52.224Z,102381.13
2024-03-06T19:19:19.157Z,102385.31
2024-03-06T19:21:45.962Z,102388.47
2024-03-06T19:24:12.638Z,102386.50
2024-03-06T19:26:39.337Z,102394.94
2024-03-06T19:29:06.136Z,102386.97
2024-03-06T19:31:36.001Z,102387.66
2024-03-06T19:34:03.681Z,102380.47
2024-03-06T19:36:30.690Z,102404.53
2024-03-06T19:38:57.309Z,102392.28
2024-03-06T19:41:24.554Z,102393.72
2024-03-06T19:43:51.297Z,102406.56
2024-03-06T19:46:18.042Z,102396.81
2024-03-06T19:48:44.758Z,102409.69
2024-03-06T19:51:13.423Z,102408.59
2024-03-06T19:53:41.618Z,102413.53
2024-03-06T19:56:11.432Z,102413.34
2024-03-06T19:58:38.366Z,102413.13
2024-03-06T20:01:05.118Z,102406.09
2024-03-06T20:03:31.765Z,102409.28
2024-03-06T20:05:58.641Z,102408.25
2024-03-06T20:08:26.268Z,102414.16
2024-03-06T20:10:53.222Z,102414.00
2024-03-06T20:13:19.984Z,102412.03
2024-03-06T20:15:46.775Z,102410.19
2024-03-06T20:18:13.646Z,102415.25
2024-03-06T20:20:41.893Z,102420.19
2024-03-06T20:23:11.082Z,102426.88
2024-03-06T20:25:42.183Z,102421.47
2024-03-06T20:28:10.237Z,102429.03
2024-03-06T20:30:47.751Z,102430.56
2024-03-06T20:33:14.833Z,102433.03
2024-03-06T20:35:41.673Z,102424.13
2024-03-06T20:38:13.681Z,102425.81
2024-03-06T20:40:43.477Z,102430.81
2024-03-06T20:43:10.313Z,102430.72
2024-03-06T20:45:39.872Z,102431.34
2024-03-06T20:48:08.390Z,102424.44
2024-03-06T20:50:36.269Z,102436.38
2024-03-06T20:53:03.706Z,102438.00
2024-03-06T20:55:30.738Z,102434.38
2024-03-06T20:57:57.889Z,102431.75
2024-03-06T21:00:24.673Z,102433.31
2024-03-06T21:02:51.414Z,102436.69
2024-03-06T21:05:18.229Z,102440.09
2024-03-06T21:07:44.940Z,102436.53
2024-03-06T21:10:15.782Z,102439.00
2024-03-06T21:12:48.927Z,102438.06
2024-03-06T21:15:16.791Z,102434.59
2024-03-06T21:17:44.535Z,102419.03
2024-03-06T21:20:14.861Z,102426.94
2024-03-06T21:22:43.070Z,102432.31
2024-03-06T21:25:11.096Z,102449.03
2024-03-06T21:27:38.827Z,102439.69
2024-03-06T21:30:09.132Z,102444.25
2024-03-06T21:32:39.179Z,102455.53
2024-03-06T21:35:06.190Z,102454.75
2024-03-06T21:37:33.597Z,102442.81
2024-03-06T21:40:00.656Z,102450.69
2024-03-06T21:42:33.903Z,102453.25
2024-03-06T21:45:00.758Z,102444.44
2024-03-06T21:47:27.881Z,102453.25
2024-03-06T21:49:54.676Z,102465.22
2024-03-06T21:52:21.509Z,102451.31
2024-03-06T21:54:48.162Z,102458.22
2024-03-06T21:57:16.458Z,102464.25
2024-03-06T21:59:43.290Z,102459.91
2024-03-06T22:02:11.752Z,102461.63
2024-03-06T22:04:38.753Z,102463.34
2024-03-06T22:07:05.541Z,102463.34
2024-03-06T22:09:33.143Z,102468.50
2024-03-06T22:12:01.984Z,102463.19
2024-03-06T22:14:29.099Z,102475.38
2024-03-06T22:16:55.780Z,102473.75
2024-03-06T22:19:25.478Z,102467.63
2024-03-06T22:21:52.356Z,102463.38
2024-03-06T22:24:19.013Z,102473.88
2024-03-06T22:26:45.833Z,102472.22
2024-03-06T22:29:12.531Z,102470.47
2024-03-06T22:31:39.426Z,102460.06
2024-03-06T22:34:07.815Z,102468.84
2024-03-06T22:36:34.542Z,102459.31
2024-03-06T22:39:01.734Z,102463.09
2024-03-06T22:41:28.709Z,102466.50
2024-03-06T22:43:55.964Z,102465.69
2024-03-06T22:46:23.800Z,102468.97
2024-03-06T22:48:51.152Z,102463.81
2024-03-06T22:51:18.816Z,102476.81
2024-03-06T22:53:46.181Z,102464.72
2024-03-06T22:56:14.182Z,102465.53
2024-03-06T22:58:41.258Z,102479.22
2024-03-06T23:01:08.032Z,102477.38
2024-03-06T23:03:36.157Z,102475.53
2024-03-06T23:06:03.634Z,102477.94
2024-03-06T23:08:30.356Z,102479.38
2024-03-06T23:10:59.975Z,102465.25
2024-03-06T23:13:26.773Z,102483.22
2024-03-06T23:15:53.812Z,102472.53
2024-03-06T23:18:21.334Z,102472.44
2024-03-06T23:20:49.903Z,102463.38
2024-03-06T23:23:16.900Z,102486.66
2024-03-06T23:25:43.719Z,102477.09
2024-03-06T23:28:11.887Z,102476.84
2024-03-06T23:30:38.998Z,102478.72
2024-03-06T23:33:07.084Z,102475.25
2024-03-06T23:35:33.948Z,102476.13
2024-03-06T23:38:00.645Z,102485.63
2024-03-06T23:40:30.528Z,102476.13
2024-03-06T23:42:58.146Z,102476.91
2024-03-06T23:45:25.121Z,102477.91
2024-03-06T23:47:52.579Z,102482.22
2024-03-06T23:50:21.088Z,102484.00
2024-03-06T23:52:49.130Z,102483.22
2024-03-06T23:55:16.947Z,102491.03
2024-03-06T23:57:43.734Z,102492.03
